sensor_id;sensor_type;location;lat;lon;timestamp;P1;durP1;ratioP1;P2;durP2;ratioP2
25715;SDS011;13573;50.936;4.328;2023-06-14T00:02:13;7.57;;;7.20;;
25715;SDS011;13573;50.936;4.328;2023-06-14T00:04:41;7.17;;;6.87;;
25715;SDS011;13573;50.936;4.328;2023-06-14T00:07:08;8.37;;;7.87;;
25715;SDS011;13573;50.936;4.328;2023-06-14T00:09:35;7.73;;;7.33;;
25715;SDS011;13573;50.936;4.328;2023-06-14T00:12:02;7.50;;;7.20;;
25715;SDS011;13573;50.936;4.328;2023-06-14T00:14:28;7.87;;;7.47;;
25715;SDS011;13573;50.936;4.328;2023-06-14T00:16:55;7.73;;;7.33;;
25715;SDS011;13573;50.936;4.328;2023-06-14T00:19:24;8.43;;;7.93;;
25715;SDS011;13573;50.936;4.328;2023-06-14T00:21:51;8.27;;;7.87;;
25715;SDS011;13573;50.936;4.328;2023-06-14T00:24:19;7.80;;;7.40;;
25715;SDS011;13573;50.936;4.328;2023-06-14T00:26:45;7.77;;;7.37;;
25715;SDS011;13573;50.936;4.328;2023-06-14T00:29:13;7.47;;;7.17;;
25715;SDS011;13573;50.936;4.328;2023-06-14T00:31:39;7.67;;;7.27;;
25715;SDS011;13573;50.936;4.328;2023-06-14T00:34:06;6.77;;;6.47;;
25715;SDS011;13573;50.936;4.328;2023-06-14T00:36:33;7.20;;;6.90;;
25715;SDS011;13573;50.936;4.328;2023-06-14T00:38:59;7.40;;;7.10;;
25715;SDS011;13573;50.936;4.328;2023-06-14T00:41:26;9.10;;;8.70;;
25715;SDS011;13573;50.936;4.328;2023-06-14T00:43:52;7.10;;;6.80;;
25715;SDS011;13573;50.936;4.328;2023-06-14T00:46:21;9.77;;;9.27;;
25715;SDS011;13573;50.936;4.328;2023-06-14T00:48:48;9.87;;;9.37;;
25715;SDS011;13573;50.936;4.328;2023-06-14T00:51:15;10.53;;;10.03;;
25715;SDS011;13573;50.936;4.328;2023-06-14T00:53:42;10.37;;;9.87;;
25715;SDS011;13573;50.936;4.328;2023-06-14T00:56:10;10.70;;;10.10;;
25715;SDS011;13573;50.936;4.328;2023-06-14T00:58:39;9.73;;;9.23;;
25715;SDS011;13573;50.936;4.328;2023-06-14T01:01:06;10.50;;;10.00;;
25715;SDS011;13573;50.936;4.328;2023-06-14T01:03:32;10.47;;;9.90;;
25715;SDS011;13573;50.936;4.328;2023-06-14T01:06:05;8.23;;;7.83;;
25715;SDS011;13573;50.936;4.328;2023-06-14T01:08:45;9.93;;;9.43;;
25715;SDS011;13573;50.936;4.328;2023-06-14T01:11:14;9.43;;;9.00;;
25715;SDS011;13573;50.936;4.328;2023-06-14T01:13:45;9.53;;;9.03;;
25715;SDS011;13573;50.936;4.328;2023-06-14T01:16:12;10.63;;;10.13;;
25715;SDS011;13573;50.936;4.328;2023-06-14T01:18:40;1.23;;;0.77;;
25715;SDS011;13573;50.936;4.328;2023-06-14T01:21:19;0.93;;;0.93;;
25715;SDS011;13573;50.936;4.328;2023-06-14T01:23:54;0.00;;;0.00;;
25715;SDS011;13573;50.936;4.328;2023-06-14T01:26:22;0.00;;;0.00;;
25715;SDS011;13573;50.936;4.328;2023-06-14T01:28:49;0.43;;;0.30;;
25715;SDS011;13573;50.936;4.328;2023-06-14T01:31:19;0.83;;;0.70;;
25715;SDS011;13573;50.936;4.328;2023-06-14T01:33:47;0.57;;;0.30;;
25715;SDS011;13573;50.936;4.328;2023-06-14T01:36:16;0.00;;;0.00;;
25715;SDS011;13573;50.936;4.328;2023-06-14T01:38:46;0.10;;;0.10;;
25715;SDS011;13573;50.936;4.328;2023-06-14T01:41:15;0.50;;;0.27;;
25715;SDS011;13573;50.936;4.328;2023-06-14T01:43:44;0.67;;;0.60;;
25715;SDS011;13573;50.936;4.328;2023-06-14T01:46:12;1.30;;;0.30;;
25715;SDS011;13573;50.936;4.328;2023-06-14T01:48:40;0.70;;;0.70;;
25715;SDS011;13573;50.936;4.328;2023-06-14T01:51:07;1.77;;;0.73;;
25715;SDS011;13573;50.936;4.328;2023-06-14T01:53:34;0.30;;;0.30;;
25715;SDS011;13573;50.936;4.328;2023-06-14T01:56:01;0.17;;;0.17;;
25715;SDS011;13573;50.936;4.328;2023-06-14T01:58:29;0.07;;;0.07;;
25715;SDS011;13573;50.936;4.328;2023-06-14T02:00:56;1.73;;;1.30;;
25715;SDS011;13573;50.936;4.328;2023-06-14T02:03:23;0.00;;;0.00;;
25715;SDS011;13573;50.936;4.328;2023-06-14T02:05:50;0.37;;;0.37;;
25715;SDS011;13573;50.936;4.328;2023-06-14T02:08:17;0.10;;;0.10;;
25715;SDS011;13573;50.936;4.328;2023-06-14T02:10:44;2.07;;;1.70;;
25715;SDS011;13573;50.936;4.328;2023-06-14T02:13:10;0.20;;;0.20;;
25715;SDS011;13573;50.936;4.328;2023-06-14T02:15:37;0.13;;;0.13;;
25715;SDS011;13573;50.936;4.328;2023-06-14T02:18:04;0.10;;;0.10;;
25715;SDS011;13573;50.936;4.328;2023-06-14T02:20:31;0.60;;;0.50;;
25715;SDS011;13573;50.936;4.328;2023-06-14T02:22:57;0.93;;;0.93;;
25715;SDS011;13573;50.936;4.328;2023-06-14T02:25:24;2.63;;;1.30;;
25715;SDS011;13573;50.936;4.328;2023-06-14T02:27:53;1.03;;;0.87;;
25715;SDS011;13573;50.936;4.328;2023-06-14T02:30:21;0.20;;;0.20;;
25715;SDS011;13573;50.936;4.328;2023-06-14T02:32:47;0.20;;;0.13;;
25715;SDS011;13573;50.936;4.328;2023-06-14T02:35:16;0.00;;;0.00;;
25715;SDS011;13573;50.936;4.328;2023-06-14T02:37:43;0.40;;;0.10;;
25715;SDS011;13573;50.936;4.328;2023-06-14T02:40:10;0.67;;;0.33;;
25715;SDS011;13573;50.936;4.328;2023-06-14T02:42:38;2.10;;;0.77;;
25715;SDS011;13573;50.936;4.328;2023-06-14T02:45:05;0.53;;;0.53;;
25715;SDS011;13573;50.936;4.328;2023-06-14T02:47:33;0.13;;;0.13;;
25715;SDS011;13573;50.936;4.328;2023-06-14T02:49:59;0.10;;;0.10;;
25715;SDS011;13573;50.936;4.328;2023-06-14T02:52:26;12.00;;;11.40;;
25715;SDS011;13573;50.936;4.328;2023-06-14T02:54:53;11.23;;;10.63;;
25715;SDS011;13573;50.936;4.328;2023-06-14T02:57:21;10.23;;;9.73;;
25715;SDS011;13573;50.936;4.328;2023-06-14T02:59:49;11.83;;;11.23;;
25715;SDS011;13573;50.936;4.328;2023-06-14T03:02:15;10.87;;;10.37;;
25715;SDS011;13573;50.936;4.328;2023-06-14T03:04:42;11.07;;;10.53;;
25715;SDS011;13573;50.936;4.328;2023-06-14T03:07:10;10.87;;;10.37;;
25715;SDS011;13573;50.936;4.328;2023-06-14T03:09:38;10.73;;;10.23;;
25715;SDS011;13573;50.936;4.328;2023-06-14T03:12:06;11.03;;;10.53;;
25715;SDS011;13573;50.936;4.328;2023-06-14T03:14:35;12.13;;;11.43;;
25715;SDS011;13573;50.936;4.328;2023-06-14T03:17:02;11.17;;;10.67;;
25715;SDS011;13573;50.936;4.328;2023-06-14T03:19:30;12.30;;;11.70;;
25715;SDS011;13573;50.936;4.328;2023-06-14T03:21:57;12.70;;;12.03;;
25715;SDS011;13573;50.936;4.328;2023-06-14T03:24:24;10.57;;;10.07;;
25715;SDS011;13573;50.936;4.328;2023-06-14T03:26:53;9.90;;;9.40;;
25715;SDS011;13573;50.936;4.328;2023-06-14T03:29:20;9.30;;;8.90;;
25715;SDS011;13573;50.936;4.328;2023-06-14T03:34:23;0.10;;;0.10;;
25715;SDS011;13573;50.936;4.328;2023-06-14T03:36:50;0.00;;;0.00;;
25715;SDS011;13573;50.936;4.328;2023-06-14T03:39:17;0.20;;;0.20;;
25715;SDS011;13573;50.936;4.328;2023-06-14T03:41:44;0.00;;;0.00;;
25715;SDS011;13573;50.936;4.328;2023-06-14T03:44:10;0.60;;;0.57;;
25715;SDS011;13573;50.936;4.328;2023-06-14T03:46:37;0.40;;;0.40;;
25715;SDS011;13573;50.936;4.328;2023-06-14T03:49:04;3.00;;;1.60;;
25715;SDS011;13573;50.936;4.328;2023-06-14T03:51:30;0.00;;;0.00;;
25715;SDS011;13573;50.936;4.328;2023-06-14T03:53:57;0.13;;;0.13;;
25715;SDS011;13573;50.936;4.328;2023-06-14T03:56:23;0.00;;;0.00;;
25715;SDS011;13573;50.936;4.328;2023-06-14T03:58:50;0.90;;;0.70;;
25715;SDS011;13573;50.936;4.328;2023-06-14T04:01:17;0.30;;;0.30;;
25715;SDS011;13573;50.936;4.328;2023-06-14T04:03:44;0.10;;;0.10;;
25715;SDS011;13573;50.936;4.328;2023-06-14T04:06:10;0.10;;;0.10;;
25715;SDS011;13573;50.936;4.328;2023-06-14T04:08:37;0.10;;;0.10;;
25715;SDS011;13573;50.936;4.328;2023-06-14T04:11:05;3.33;;;2.07;;
25715;SDS011;13573;50.936;4.328;2023-06-14T04:13:31;0.10;;;0.10;;
25715;SDS011;13573;50.936;4.328;2023-06-14T04:16:00;0.60;;;0.60;;
25715;SDS011;13573;50.936;4.328;2023-06-14T04:18:27;0.20;;;0.20;;
25715;SDS011;13573;50.936;4.328;2023-06-14T04:20:53;0.60;;;0.50;;
25715;SDS011;13573;50.936;4.328;2023-06-14T04:23:22;0.13;;;0.13;;
25715;SDS011;13573;50.936;4.328;2023-06-14T04:25:49;1.40;;;1.33;;
25715;SDS011;13573;50.936;4.328;2023-06-14T04:28:15;0.67;;;0.67;;
25715;SDS011;13573;50.936;4.328;2023-06-14T04:30:43;1.30;;;1.20;;
25715;SDS011;13573;50.936;4.328;2023-06-14T04:33:10;0.27;;;0.27;;
25715;SDS011;13573;50.936;4.328;2023-06-14T04:35:37;1.80;;;1.00;;
25715;SDS011;13573;50.936;4.328;2023-06-14T04:38:04;1.03;;;0.53;;
25715;SDS011;13573;50.936;4.328;2023-06-14T04:40:33;1.87;;;1.07;;
25715;SDS011;13573;50.936;4.328;2023-06-14T04:42:59;1.23;;;1.13;;
25715;SDS011;13573;50.936;4.328;2023-06-14T04:45:26;0.30;;;0.30;;
25715;SDS011;13573;50.936;4.328;2023-06-14T04:47:55;2.20;;;2.00;;
25715;SDS011;13573;50.936;4.328;2023-06-14T04:50:22;0.80;;;0.20;;
25715;SDS011;13573;50.936;4.328;2023-06-14T04:52:49;0.50;;;0.50;;
25715;SDS011;13573;50.936;4.328;2023-06-14T04:55:17;1.70;;;1.60;;
25715;SDS011;13573;50.936;4.328;2023-06-14T04:57:44;0.20;;;0.20;;
25715;SDS011;13573;50.936;4.328;2023-06-14T05:00:11;3.70;;;1.60;;
25715;SDS011;13573;50.936;4.328;2023-06-14T05:02:38;1.97;;;1.20;;
25715;SDS011;13573;50.936;4.328;2023-06-14T05:05:06;3.07;;;2.03;;
25715;SDS011;13573;50.936;4.328;2023-06-14T05:07:33;1.00;;;0.97;;
25715;SDS011;13573;50.936;4.328;2023-06-14T05:09:59;3.60;;;1.67;;
25715;SDS011;13573;50.936;4.328;2023-06-14T05:12:26;4.30;;;1.83;;
25715;SDS011;13573;50.936;4.328;2023-06-14T05:14:52;1.53;;;1.10;;
25715;SDS011;13573;50.936;4.328;2023-06-14T05:17:19;2.00;;;1.67;;
25715;SDS011;13573;50.936;4.328;2023-06-14T05:19:46;1.40;;;0.60;;
25715;SDS011;13573;50.936;4.328;2023-06-14T05:22:12;1.87;;;1.20;;
25715;SDS011;13573;50.936;4.328;2023-06-14T05:24:39;0.47;;;0.47;;
25715;SDS011;13573;50.936;4.328;2023-06-14T05:27:07;3.27;;;2.07;;
25715;SDS011;13573;50.936;4.328;2023-06-14T05:29:34;4.37;;;2.37;;
25715;SDS011;13573;50.936;4.328;2023-06-14T05:32:01;0.50;;;0.50;;
25715;SDS011;13573;50.936;4.328;2023-06-14T05:34:29;1.37;;;0.80;;
25715;SDS011;13573;50.936;4.328;2023-06-14T05:36:55;2.03;;;1.10;;
25715;SDS011;13573;50.936;4.328;2023-06-14T05:39:22;0.40;;;0.40;;
25715;SDS011;13573;50.936;4.328;2023-06-14T05:41:49;1.23;;;0.93;;
25715;SDS011;13573;50.936;4.328;2023-06-14T05:44:16;4.23;;;2.17;;
25715;SDS011;13573;50.936;4.328;2023-06-14T05:46:43;8.00;;;2.57;;
25715;SDS011;13573;50.936;4.328;2023-06-14T05:49:09;4.67;;;2.83;;
25715;SDS011;13573;50.936;4.328;2023-06-14T05:51:37;0.63;;;0.53;;
25715;SDS011;13573;50.936;4.328;2023-06-14T05:54:04;0.60;;;0.30;;
25715;SDS011;13573;50.936;4.328;2023-06-14T05:56:30;1.53;;;1.43;;
25715;SDS011;13573;50.936;4.328;2023-06-14T05:58:57;3.97;;;2.13;;
25715;SDS011;13573;50.936;4.328;2023-06-14T06:01:24;4.00;;;1.47;;
25715;SDS011;13573;50.936;4.328;2023-06-14T06:03:50;1.90;;;1.33;;
25715;SDS011;13573;50.936;4.328;2023-06-14T06:06:17;2.37;;;1.63;;
25715;SDS011;13573;50.936;4.328;2023-06-14T06:08:44;0.30;;;0.30;;
25715;SDS011;13573;50.936;4.328;2023-06-14T06:11:11;2.20;;;1.70;;
25715;SDS011;13573;50.936;4.328;2023-06-14T06:13:38;3.00;;;1.67;;
25715;SDS011;13573;50.936;4.328;2023-06-14T06:16:06;1.17;;;0.60;;
25715;SDS011;13573;50.936;4.328;2023-06-14T06:18:32;1.20;;;1.03;;
25715;SDS011;13573;50.936;4.328;2023-06-14T06:20:59;2.80;;;1.00;;
25715;SDS011;13573;50.936;4.328;2023-06-14T06:23:29;6.67;;;1.25;;
25715;SDS011;13573;50.936;4.328;2023-06-14T06:25:55;0.00;;;0.00;;
25715;SDS011;13573;50.936;4.328;2023-06-14T06:28:22;2.85;;;1.82;;
25715;SDS011;13573;50.936;4.328;2023-06-14T06:30:48;0.30;;;0.30;;
25715;SDS011;13573;50.936;4.328;2023-06-14T06:33:16;2.17;;;1.37;;
25715;SDS011;13573;50.936;4.328;2023-06-14T06:35:43;0.42;;;0.42;;
25715;SDS011;13573;50.936;4.328;2023-06-14T06:38:09;0.20;;;0.20;;
25715;SDS011;13573;50.936;4.328;2023-06-14T06:40:36;3.20;;;2.33;;
25715;SDS011;13573;50.936;4.328;2023-06-14T06:43:02;2.90;;;1.47;;
25715;SDS011;13573;50.936;4.328;2023-06-14T06:45:29;7.00;;;4.62;;
25715;SDS011;13573;50.936;4.328;2023-06-14T06:47:56;5.45;;;5.03;;
25715;SDS011;13573;50.936;4.328;2023-06-14T06:50:22;3.15;;;3.05;;
25715;SDS011;13573;50.936;4.328;2023-06-14T06:52:50;5.78;;;5.08;;
25715;SDS011;13573;50.936;4.328;2023-06-14T06:55:17;7.55;;;5.35;;
25715;SDS011;13573;50.936;4.328;2023-06-14T06:57:44;3.33;;;3.12;;
25715;SDS011;13573;50.936;4.328;2023-06-14T07:00:11;4.08;;;3.67;;
25715;SDS011;13573;50.936;4.328;2023-06-14T07:02:38;3.22;;;3.02;;
25715;SDS011;13573;50.936;4.328;2023-06-14T07:05:05;4.92;;;4.62;;
25715;SDS011;13573;50.936;4.328;2023-06-14T07:07:31;4.33;;;4.10;;
25715;SDS011;13573;50.936;4.328;2023-06-14T07:09:58;0.53;;;0.45;;
25715;SDS011;13573;50.936;4.328;2023-06-14T07:12:26;0.45;;;0.35;;
25715;SDS011;13573;50.936;4.328;2023-06-14T07:14:53;1.82;;;0.93;;
25715;SDS011;13573;50.936;4.328;2023-06-14T07:17:19;6.40;;;2.70;;
25715;SDS011;13573;50.936;4.328;2023-06-14T07:19:46;1.82;;;0.93;;
25715;SDS011;13573;50.936;4.328;2023-06-14T07:22:13;1.85;;;0.88;;
25715;SDS011;13573;50.936;4.328;2023-06-14T07:24:39;0.85;;;0.62;;
25715;SDS011;13573;50.936;4.328;2023-06-14T07:27:07;3.33;;;1.95;;
25715;SDS011;13573;50.936;4.328;2023-06-14T07:29:34;7.08;;;2.70;;
25715;SDS011;13573;50.936;4.328;2023-06-14T07:32:01;1.75;;;0.95;;
25715;SDS011;13573;50.936;4.328;2023-06-14T07:34:28;1.15;;;0.80;;
25715;SDS011;13573;50.936;4.328;2023-06-14T07:36:54;2.37;;;1.42;;
25715;SDS011;13573;50.936;4.328;2023-06-14T07:39:21;1.32;;;0.95;;
25715;SDS011;13573;50.936;4.328;2023-06-14T07:41:49;1.77;;;1.15;;
25715;SDS011;13573;50.936;4.328;2023-06-14T07:44:15;3.72;;;3.15;;
25715;SDS011;13573;50.936;4.328;2023-06-14T07:46:42;0.68;;;0.68;;
25715;SDS011;13573;50.936;4.328;2023-06-14T07:49:09;3.55;;;1.57;;
25715;SDS011;13573;50.936;4.328;2023-06-14T07:51:35;3.35;;;1.07;;
25715;SDS011;13573;50.936;4.328;2023-06-14T07:54:02;3.58;;;2.00;;
25715;SDS011;13573;50.936;4.328;2023-06-14T07:56:29;2.00;;;1.00;;
25715;SDS011;13573;50.936;4.328;2023-06-14T07:58:57;1.42;;;0.88;;
25715;SDS011;13573;50.936;4.328;2023-06-14T08:01:24;1.37;;;0.55;;
25715;SDS011;13573;50.936;4.328;2023-06-14T08:03:51;0.30;;;0.30;;
25715;SDS011;13573;50.936;4.328;2023-06-14T08:06:18;0.23;;;0.23;;
25715;SDS011;13573;50.936;4.328;2023-06-14T08:08:44;8.10;;;1.70;;
25715;SDS011;13573;50.936;4.328;2023-06-14T08:11:11;5.25;;;4.95;;
25715;SDS011;13573;50.936;4.328;2023-06-14T08:13:38;5.60;;;5.22;;
25715;SDS011;13573;50.936;4.328;2023-06-14T08:16:04;2.08;;;1.57;;
25715;SDS011;13573;50.936;4.328;2023-06-14T08:18:31;0.90;;;0.90;;
25715;SDS011;13573;50.936;4.328;2023-06-14T08:20:58;0.72;;;0.68;;
25715;SDS011;13573;50.936;4.328;2023-06-14T08:23:24;0.30;;;0.25;;
25715;SDS011;13573;50.936;4.328;2023-06-14T08:25:51;3.98;;;3.77;;
25715;SDS011;13573;50.936;4.328;2023-06-14T08:28:18;0.28;;;0.28;;
25715;SDS011;13573;50.936;4.328;2023-06-14T08:30:44;1.52;;;1.22;;
25715;SDS011;13573;50.936;4.328;2023-06-14T08:33:11;1.77;;;1.32;;
25715;SDS011;13573;50.936;4.328;2023-06-14T08:35:38;3.37;;;1.77;;
25715;SDS011;13573;50.936;4.328;2023-06-14T08:38:05;2.05;;;1.40;;
25715;SDS011;13573;50.936;4.328;2023-06-14T08:40:32;4.22;;;1.37;;
25715;SDS011;13573;50.936;4.328;2023-06-14T08:43:02;3.75;;;2.15;;
25715;SDS011;13573;50.936;4.328;2023-06-14T08:45:29;0.20;;;0.20;;
25715;SDS011;13573;50.936;4.328;2023-06-14T08:47:55;8.93;;;8.38;;
25715;SDS011;13573;50.936;4.328;2023-06-14T08:50:23;0.88;;;0.80;;
25715;SDS011;13573;50.936;4.328;2023-06-14T08:52:58;1.98;;;1.22;;
25715;SDS011;13573;50.936;4.328;2023-06-14T08:55:27;2.25;;;1.37;;
25715;SDS011;13573;50.936;4.328;2023-06-14T08:57:55;1.62;;;1.15;;
25715;SDS011;13573;50.936;4.328;2023-06-14T09:00:24;13.80;;;12.88;;
25715;SDS011;13573;50.936;4.328;2023-06-14T09:02:52;1.35;;;1.05;;
25715;SDS011;13573;50.936;4.328;2023-06-14T09:05:23;8.28;;;0.85;;
25715;SDS011;13573;50.936;4.328;2023-06-14T09:07:51;10.65;;;2.70;;
25715;SDS011;13573;50.936;4.328;2023-06-14T09:10:21;2.87;;;1.60;;
25715;SDS011;13573;50.936;4.328;2023-06-14T09:12:48;7.05;;;6.55;;
25715;SDS011;13573;50.936;4.328;2023-06-14T09:15:15;6.20;;;5.87;;
25715;SDS011;13573;50.936;4.328;2023-06-14T09:17:42;5.62;;;5.37;;
25715;SDS011;13573;50.936;4.328;2023-06-14T09:20:09;8.25;;;7.47;;
25715;SDS011;13573;50.936;4.328;2023-06-14T09:22:36;7.45;;;6.50;;
25715;SDS011;13573;50.936;4.328;2023-06-14T09:25:03;4.62;;;4.33;;
25715;SDS011;13573;50.936;4.328;2023-06-14T09:27:31;4.53;;;4.12;;
25715;SDS011;13573;50.936;4.328;2023-06-14T09:29:58;4.40;;;2.62;;
25715;SDS011;13573;50.936;4.328;2023-06-14T09:32:26;1.87;;;1.20;;
25715;SDS011;13573;50.936;4.328;2023-06-14T09:34:53;2.77;;;2.05;;
25715;SDS011;13573;50.936;4.328;2023-06-14T09:37:28;1.60;;;1.05;;
25715;SDS011;13573;50.936;4.328;2023-06-14T09:39:57;2.08;;;1.60;;
25715;SDS011;13573;50.936;4.328;2023-06-14T09:42:24;6.08;;;5.67;;
25715;SDS011;13573;50.936;4.328;2023-06-14T09:44:51;1.45;;;1.00;;
25715;SDS011;13573;50.936;4.328;2023-06-14T09:47:19;1.72;;;1.32;;
25715;SDS011;13573;50.936;4.328;2023-06-14T09:49:47;0.88;;;0.53;;
25715;SDS011;13573;50.936;4.328;2023-06-14T09:52:15;8.80;;;8.20;;
25715;SDS011;13573;50.936;4.328;2023-06-14T09:54:45;13.00;;;11.60;;
25715;SDS011;13573;50.936;4.328;2023-06-14T09:57:13;11.48;;;10.43;;
25715;SDS011;13573;50.936;4.328;2023-06-14T09:59:43;2.70;;;1.52;;
25715;SDS011;13573;50.936;4.328;2023-06-14T10:02:14;4.65;;;1.55;;
25715;SDS011;13573;50.936;4.328;2023-06-14T10:04:44;3.05;;;1.12;;
25715;SDS011;13573;50.936;4.328;2023-06-14T10:07:15;4.67;;;2.10;;
25715;SDS011;13573;50.936;4.328;2023-06-14T10:09:46;10.03;;;9.40;;
25715;SDS011;13573;50.936;4.328;2023-06-14T10:12:16;9.23;;;8.63;;
25715;SDS011;13573;50.936;4.328;2023-06-14T10:14:48;8.28;;;7.67;;
25715;SDS011;13573;50.936;4.328;2023-06-14T10:17:20;10.78;;;10.18;;
25715;SDS011;13573;50.936;4.328;2023-06-14T10:19:48;11.33;;;10.50;;
25715;SDS011;13573;50.936;4.328;2023-06-14T10:22:21;11.70;;;10.72;;
25715;SDS011;13573;50.936;4.328;2023-06-14T10:24:54;11.20;;;10.50;;
25715;SDS011;13573;50.936;4.328;2023-06-14T10:27:21;14.03;;;5.97;;
25715;SDS011;13573;50.936;4.328;2023-06-14T10:32:34;2.58;;;2.37;;
25715;SDS011;13573;50.936;4.328;2023-06-14T10:35:05;2.45;;;1.87;;
25715;SDS011;13573;50.936;4.328;2023-06-14T10:37:32;8.93;;;8.28;;
25715;SDS011;13573;50.936;4.328;2023-06-14T10:39:59;4.00;;;3.58;;
25715;SDS011;13573;50.936;4.328;2023-06-14T10:42:27;3.62;;;3.42;;
25715;SDS011;13573;50.936;4.328;2023-06-14T10:44:56;2.05;;;1.07;;
25715;SDS011;13573;50.936;4.328;2023-06-14T10:47:32;0.53;;;0.53;;
25715;SDS011;13573;50.936;4.328;2023-06-14T10:50:04;1.60;;;1.17;;
25715;SDS011;13573;50.936;4.328;2023-06-14T10:52:34;1.20;;;0.80;;
25715;SDS011;13573;50.936;4.328;2023-06-14T10:55:05;1.45;;;1.30;;
25715;SDS011;13573;50.936;4.328;2023-06-14T10:57:37;3.15;;;2.05;;
25715;SDS011;13573;50.936;4.328;2023-06-14T11:00:06;0.20;;;0.20;;
25715;SDS011;13573;50.936;4.328;2023-06-14T11:05:30;10.93;;;10.23;;
25715;SDS011;13573;50.936;4.328;2023-06-14T11:09:11;10.10;;;9.58;;
25715;SDS011;13573;50.936;4.328;2023-06-14T11:10:52;11.25;;;10.45;;
25715;SDS011;13573;50.936;4.328;2023-06-14T11:13:24;10.75;;;10.18;;
25715;SDS011;13573;50.936;4.328;2023-06-14T11:15:52;10.90;;;10.30;;
25715;SDS011;13573;50.936;4.328;2023-06-14T11:18:21;12.10;;;11.30;;
25715;SDS011;13573;50.936;4.328;2023-06-14T11:20:51;10.58;;;9.95;;
25715;SDS011;13573;50.936;4.328;2023-06-14T11:23:18;10.28;;;9.68;;
25715;SDS011;13573;50.936;4.328;2023-06-14T11:25:49;9.78;;;9.25;;
25715;SDS011;13573;50.936;4.328;2023-06-14T11:28:17;10.18;;;9.68;;
25715;SDS011;13573;50.936;4.328;2023-06-14T11:30:48;10.13;;;9.35;;
25715;SDS011;13573;50.936;4.328;2023-06-14T11:33:17;9.95;;;9.45;;
25715;SDS011;13573;50.936;4.328;2023-06-14T11:35:44;9.95;;;9.45;;
25715;SDS011;13573;50.936;4.328;2023-06-14T11:38:11;9.05;;;8.65;;
25715;SDS011;13573;50.936;4.328;2023-06-14T11:40:38;10.20;;;9.45;;
25715;SDS011;13573;50.936;4.328;2023-06-14T11:43:05;10.88;;;10.23;;
25715;SDS011;13573;50.936;4.328;2023-06-14T11:45:31;11.12;;;10.30;;
25715;SDS011;13573;50.936;4.328;2023-06-14T11:47:58;9.43;;;8.93;;
25715;SDS011;13573;50.936;4.328;2023-06-14T11:50:25;10.63;;;10.03;;
25715;SDS011;13573;50.936;4.328;2023-06-14T11:52:54;10.38;;;9.78;;
25715;SDS011;13573;50.936;4.328;2023-06-14T11:55:22;11.33;;;10.63;;
25715;SDS011;13573;50.936;4.328;2023-06-14T11:57:49;11.88;;;10.88;;
25715;SDS011;13573;50.936;4.328;2023-06-14T12:00:16;10.03;;;9.43;;
25715;SDS011;13573;50.936;4.328;2023-06-14T12:02:52;10.08;;;9.58;;
25715;SDS011;13573;50.936;4.328;2023-06-14T12:05:21;9.98;;;9.38;;
25715;SDS011;13573;50.936;4.328;2023-06-14T12:07:48;10.45;;;9.75;;
25715;SDS011;13573;50.936;4.328;2023-06-14T12:10:16;9.38;;;8.88;;
25715;SDS011;13573;50.936;4.328;2023-06-14T12:12:43;9.40;;;8.90;;
25715;SDS011;13573;50.936;4.328;2023-06-14T12:15:10;8.53;;;8.10;;
25715;SDS011;13573;50.936;4.328;2023-06-14T12:17:38;10.18;;;9.38;;
25715;SDS011;13573;50.936;4.328;2023-06-14T12:20:10;9.63;;;9.00;;
25715;SDS011;13573;50.936;4.328;2023-06-14T12:22:46;11.20;;;10.50;;
25715;SDS011;13573;50.936;4.328;2023-06-14T12:25:22;0.85;;;0.53;;
25715;SDS011;13573;50.936;4.328;2023-06-14T12:28:04;0.98;;;0.57;;
25715;SDS011;13573;50.936;4.328;2023-06-14T12:30:32;2.87;;;1.02;;
25715;SDS011;13573;50.936;4.328;2023-06-14T12:33:01;14.73;;;10.18;;
25715;SDS011;13573;50.936;4.328;2023-06-14T12:35:28;14.13;;;10.50;;
25715;SDS011;13573;50.936;4.328;2023-06-14T12:37:55;9.55;;;9.05;;
25715;SDS011;13573;50.936;4.328;2023-06-14T12:40:22;10.28;;;9.68;;
25715;SDS011;13573;50.936;4.328;2023-06-14T12:42:49;10.08;;;9.50;;
25715;SDS011;13573;50.936;4.328;2023-06-14T12:45:16;75.40;;;2.60;;
25715;SDS011;13573;50.936;4.328;2023-06-14T12:47:43;1.35;;;1.10;;
25715;SDS011;13573;50.936;4.328;2023-06-14T12:50:09;3.92;;;1.40;;
25715;SDS011;13573;50.936;4.328;2023-06-14T12:52:36;4.90;;;3.30;;
25715;SDS011;13573;50.936;4.328;2023-06-14T12:55:04;3.12;;;2.87;;
25715;SDS011;13573;50.936;4.328;2023-06-14T12:57:31;1.67;;;1.30;;
25715;SDS011;13573;50.936;4.328;2023-06-14T12:59:59;3.27;;;0.95;;
25715;SDS011;13573;50.936;4.328;2023-06-14T13:02:26;1.12;;;0.62;;
25715;SDS011;13573;50.936;4.328;2023-06-14T13:04:53;2.52;;;0.90;;
25715;SDS011;13573;50.936;4.328;2023-06-14T13:07:20;2.05;;;1.30;;
25715;SDS011;13573;50.936;4.328;2023-06-14T13:09:47;2.17;;;1.25;;
25715;SDS011;13573;50.936;4.328;2023-06-14T13:12:14;1.20;;;0.62;;
25715;SDS011;13573;50.936;4.328;2023-06-14T13:14:41;1.45;;;0.70;;
25715;SDS011;13573;50.936;4.328;2023-06-14T13:17:08;2.83;;;2.67;;
25715;SDS011;13573;50.936;4.328;2023-06-14T13:19:35;2.17;;;1.60;;
25715;SDS011;13573;50.936;4.328;2023-06-14T13:22:03;0.25;;;0.25;;
25715;SDS011;13573;50.936;4.328;2023-06-14T13:24:30;8.08;;;7.53;;
25715;SDS011;13573;50.936;4.328;2023-06-14T13:26:57;10.68;;;10.08;;
25715;SDS011;13573;50.936;4.328;2023-06-14T13:29:24;9.13;;;8.53;;
25715;SDS011;13573;50.936;4.328;2023-06-14T13:31:52;8.85;;;8.35;;
25715;SDS011;13573;50.936;4.328;2023-06-14T13:34:19;7.75;;;7.35;;
25715;SDS011;13573;50.936;4.328;2023-06-14T13:36:48;8.33;;;7.83;;
25715;SDS011;13573;50.936;4.328;2023-06-14T13:39:15;8.25;;;7.75;;
25715;SDS011;13573;50.936;4.328;2023-06-14T13:41:42;2.95;;;1.98;;
25715;SDS011;13573;50.936;4.328;2023-06-14T13:44:09;1.80;;;1.70;;
25715;SDS011;13573;50.936;4.328;2023-06-14T13:46:37;2.02;;;1.27;;
25715;SDS011;13573;50.936;4.328;2023-06-14T13:49:04;1.50;;;0.95;;
25715;SDS011;13573;50.936;4.328;2023-06-14T13:51:31;4.20;;;1.12;;
25715;SDS011;13573;50.936;4.328;2023-06-14T13:53:58;1.10;;;0.70;;
25715;SDS011;13573;50.936;4.328;2023-06-14T13:56:25;1.70;;;0.60;;
25715;SDS011;13573;50.936;4.328;2023-06-14T13:58:52;5.00;;;1.00;;
25715;SDS011;13573;50.936;4.328;2023-06-14T14:01:19;5.78;;;5.47;;
25715;SDS011;13573;50.936;4.328;2023-06-14T14:03:46;6.05;;;5.72;;
25715;SDS011;13573;50.936;4.328;2023-06-14T14:06:16;5.90;;;5.60;;
25715;SDS011;13573;50.936;4.328;2023-06-14T14:08:43;6.28;;;5.92;;
25715;SDS011;13573;50.936;4.328;2023-06-14T14:11:10;6.17;;;5.87;;
25715;SDS011;13573;50.936;4.328;2023-06-14T14:13:38;2.22;;;1.00;;
25715;SDS011;13573;50.936;4.328;2023-06-14T14:16:06;0.53;;;0.47;;
25715;SDS011;13573;50.936;4.328;2023-06-14T14:18:32;6.35;;;6.05;;
25715;SDS011;13573;50.936;4.328;2023-06-14T14:20:59;2.30;;;1.10;;
25715;SDS011;13573;50.936;4.328;2023-06-14T14:23:26;4.17;;;3.87;;
25715;SDS011;13573;50.936;4.328;2023-06-14T14:25:53;5.53;;;5.22;;
25715;SDS011;13573;50.936;4.328;2023-06-14T14:28:20;1.82;;;1.67;;
25715;SDS011;13573;50.936;4.328;2023-06-14T14:30:46;5.47;;;5.17;;
25715;SDS011;13573;50.936;4.328;2023-06-14T14:33:13;5.78;;;5.47;;
25715;SDS011;13573;50.936;4.328;2023-06-14T14:35:43;6.40;;;6.00;;
25715;SDS011;13573;50.936;4.328;2023-06-14T14:38:13;7.10;;;6.70;;
25715;SDS011;13573;50.936;4.328;2023-06-14T14:40:41;7.15;;;6.72;;
25715;SDS011;13573;50.936;4.328;2023-06-14T14:43:09;9.08;;;8.68;;
25715;SDS011;13573;50.936;4.328;2023-06-14T14:45:36;10.72;;;10.03;;
25715;SDS011;13573;50.936;4.328;2023-06-14T14:48:03;10.10;;;9.60;;
25715;SDS011;13573;50.936;4.328;2023-06-14T14:50:29;9.63;;;9.03;;
25715;SDS011;13573;50.936;4.328;2023-06-14T14:52:56;10.45;;;9.85;;
25715;SDS011;13573;50.936;4.328;2023-06-14T14:55:23;12.07;;;11.38;;